Logo AVAMET
Benvolgut visitant, si us plau, ingressa Recuperar contrasenya

Castelló de la Plana UJI

Dades diàries. Acumulats / Últims 30 dies disponibles

Data Temperatura (°C) Humitat rel. (%) Pressió rel. (hPa) Vent (km/h) Precipitació
Mínima Mitjana Màxima Amplitud
tèrmica
Mínima Mitjana Màxima Mínima Mitjana Màxima Predom. Mitjana Ràfega
màxima
Total
(mm)
Índex-n
Mínima Mitjana Màxima Mínima Mitjana Màxima n
0 a 1
P0 max
mm 5'
Dades mensuals acumulades fins l'últim dia disponible
07/2019 19,7 21,2 23,4 26,1 28,8 30,4 31,9 12,2   5,1 45,1 11,4
Dades anuals acumulades fins l'últim dia disponible
2019 1,0 10,5 23,4 16,0 12,0 21,2 37,6 36,6   5,5 74,0 77,3
Últims 30 dies disponibles
19-07-2019 21,1     25,9     30,0 8,9 WNW 4,2 25,7 0,0
18-07-2019 20,4     25,8     29,4 9,0 E 4,7 24,1 0,0
17-07-2019 21,9     25,9     30,3 8,4 SE 3,7 25,7 0,0
16-07-2019 22,6     26,0     29,2 6,6 ESE 5,3 27,4 0,0
15-07-2019 20,9     25,8     30,1 9,2 E 5,3 22,5 0,0
14-07-2019 21,2     25,3     29,2 8,0 NW 4,2 29,0 3,8
13-07-2019 23,4     27,1     31,4 8,0 E 5,8 24,1 0,0
12-07-2019 21,4     27,4     31,9 10,5 WSW 4,2 17,7 0,0
11-07-2019 20,4     26,4     30,9 10,5 ESE 4,8 20,9 0,0
10-07-2019 19,8     25,0     28,8 9,0 WSW 5,0 24,1 0,0
09-07-2019 22,1     25,6     29,9 7,8 ESE 5,6 29,0 0,0
08-07-2019 22,1     25,6     29,0 6,9 ENE 5,3 27,4 2,6
07-07-2019 22,2     26,3     30,7 8,5 E 7,2 45,1 5,0
06-07-2019 22,8     26,9     31,3 8,5 E 4,3 20,9 0,0
05-07-2019 20,8     26,3     31,1 10,3 SE 4,3 22,5 0,0
04-07-2019 19,9     26,6     31,7 11,8 E 5,1 25,7 0,0
03-07-2019 19,7     26,3     30,9 11,2 E 5,0 20,9 0,0
02-07-2019 20,3     26,1     30,5 10,2 E 5,3 20,9 0,0
01-07-2019 20,3     26,0     30,4 10,1 E 6,8 30,6 0,0
29-06-2019 19,3     29,3     37,6 18,3 SSE 5,0 22,5 0,0
28-06-2019 19,0     27,5     34,2 15,2 ESE 3,9 19,3 0,0
27-06-2019 21,2     26,6     31,9 10,7 E 4,8 22,5 0,0
26-06-2019 20,8     25,3     29,2 8,4 E 8,4 40,2 0,0
25-06-2019 19,7     23,7     27,5 7,8 E 8,2 37,0 0,0
24-06-2019 17,7     23,2     28,6 10,9 E 7,9 38,6 0,0
23-06-2019 17,6     23,4     27,8 10,2 ESE 4,7 20,9 0,0
22-06-2019 18,1     22,6     25,9 7,8 ESE 4,7 22,5 0,0
21-06-2019 19,7     22,6     25,6 5,9 E 7,2 29,0 0,0
20-06-2019 17,4     22,1     26,3 8,9 E 7,9 33,8 0,0
19-06-2019 15,9     22,6     27,4 11,5 E 4,8 20,9 0,0
Últims 13 mesos disponibles
06/2019 10,1 16,7 21,2 22,1 21,3 26,7 37,6 27,5 E 5,8 48,3 0,0
05/2019 7,3 12,5 15,7 17,7 17,8 22,4 28,4 21,1 W 5,6 41,8 12,5
04/2019 5,9 10,0 13,9 14,9 16,0 19,5 27,1 21,2 W 7,6 59,5 51,5
03/2019 4,3 7,5 13,2 13,7 15,8 19,5 25,4 21,1 W 5,5 46,7 1,0
02/2019 1,0 4,9 9,7 10,8 13,3 16,9 23,3 22,3 SW 5,3 74,0 0,0
01/2019 1,8 4,2 7,6 10,0 12,0 15,8 21,8 20,0 WSW 3,5 56,3 0,9
12/2018 3,2 7,3 10,9 12,1 14,1 17,5 23,6 20,4 WSW 1,5 46,7 8,9
11/2018 5,3 9,9 16,2 13,9 14,1 18,3 21,1 15,8 SW 2,2 35,4 80,0
10/2018 5,8 13,5 18,1 18,1 14,2 22,2 27,4 21,6 ENE 2,6 57,9 138,0
09/2018 15,7 19,5 22,1 23,7 24,2 27,3 30,4 14,7 ENE 2,1 46,7 69,1
08/2018 18,2 21,9 26,1 26,4 26,6 30,0 34,4 16,2 2,4 29,0 76,3
07/2018 18,4 21,8 24,0 26,2 26,1 29,8 34,3 15,9 2,6 22,5 2,5
12/2017 2,2 5,7 9,4 11,1 11,8 16,4 23,8 21,6 3,1 64,4 1,6
Tots els anys disponibles
2017 2,2 12,9 24,9 17,8 9,0 22,1 35,6 33,4 2,5 75,6 376,8
2016 2,2 15,7 24,1 20,1 12,0 24,0 33,2 31,0 2,5 43,5 361,3
2015 0,8 13,2 20,4 17,8 20,2 22,1 35,9 35,1 4,1 67,6 513,8
Temperatura (°C)
Humitat relativa (%)
Velocitat del vent i ràfega màxima (km/h)
Direcció del vent (°)
Pressió (hPa)
Precipitació (mm)
Nota sobre les dades: s'avisa a l'usuari de la provisionalitat i no oficialitat d'aquestes dades
Logo AVAMET blanc
Web allotjada a Sollutia
Llicència de Creative CommonsLa web d'AVAMET i els seus continguts estan subjectes a una llicència de
Reconeixement - No Comercial - Compartir igual
Properes estacions: Altea - Club Nàutic d'Altea (Soci), Ares del Maestrat (Ajuntament Soci),      - - - - -      Últimes estacions: Catadau - Urb. Lloma Molina (Inforatge), Ontinyent - El Pilar (Soci), Asp - Poliesportiu (Soci) - - -